Time;durP1;ratioP1;P1;durP2;ratioP2;P2;SDS_P1;SDS_P2;PMS_P1;PMS_P2;Temp;Humidity;BMP_temperature;BMP_pressure;BME280_temperature;BME280_humidity;BME280_pressure;Samples;Min_cycle;Max_cycle;Signal;HPM_P1;HPM_P2
2023/02/15 00:01:54;;;;;;;8.77;3.92;;;7.50;80.30;;;;;;5036327;28;20036;-68
2023/02/15 00:04:22;;;;;;;7.70;3.70;;;7.50;80.20;;;;;;5030380;28;20025;-68
2023/02/15 00:06:48;;;;;;;6.95;3.80;;;7.50;80.10;;;;;;5033438;28;20021;-69
2023/02/15 00:09:13;;;;;;;7.07;3.47;;;7.60;80.10;;;;;;5034675;28;20538;-69
2023/02/15 00:11:39;;;;;;;8.07;3.25;;;7.50;80.00;;;;;;5032451;28;20029;-69
2023/02/15 00:14:22;;;;;;;7.22;3.60;;;7.50;80.00;;;;;;5031290;28;20022;-69
2023/02/15 00:16:52;;;;;;;8.00;3.25;;;7.50;80.00;;;;;;5029398;28;20037;-69
2023/02/15 00:19:19;;;;;;;11.23;3.80;;;7.50;80.00;;;;;;5030759;28;20030;-68
2023/02/15 00:21:48;;;;;;;10.10;4.25;;;7.50;80.00;;;;;;5027719;28;20021;-69
2023/02/15 00:24:16;;;;;;;13.48;5.15;;;7.50;80.00;;;;;;5029344;28;20030;-68
2023/02/15 00:26:43;;;;;;;7.45;3.50;;;7.50;80.10;;;;;;5050321;28;20512;-68
2023/02/15 00:29:10;;;;;;;9.35;3.78;;;7.50;80.10;;;;;;5031303;28;20048;-68
2023/02/15 00:31:36;;;;;;;7.82;3.47;;;7.50;80.10;;;;;;5036058;28;20017;-69
2023/02/15 00:34:06;;;;;;;7.55;3.40;;;7.50;80.10;;;;;;5032420;28;20033;-69
2023/02/15 00:36:32;;;;;;;8.40;4.00;;;7.40;80.10;;;;;;5031174;28;20030;-69
2023/02/15 00:38:58;;;;;;;8.27;3.50;;;7.40;80.20;;;;;;5031407;28;20029;-69
2023/02/15 00:41:23;;;;;;;9.80;3.58;;;7.20;80.30;;;;;;5033837;28;20239;-69
2023/02/15 00:43:49;;;;;;;6.90;3.20;;;7.10;80.60;;;;;;5034205;28;20025;-69
2023/02/15 00:46:14;;;;;;;7.75;3.58;;;7.10;80.80;;;;;;5031747;28;20056;-69
2023/02/15 00:48:40;;;;;;;7.35;3.15;;;7.00;81.10;;;;;;5030641;28;20423;-69
2023/02/15 00:51:05;;;;;;;5.40;3.22;;;7.10;81.30;;;;;;5035276;28;20492;-69
2023/02/15 00:53:31;;;;;;;6.07;2.83;;;7.10;81.20;;;;;;5029979;28;20059;-69
2023/02/15 00:55:57;;;;;;;5.13;2.65;;;7.00;81.10;;;;;;5030856;28;20084;-69
2023/02/15 00:58:23;;;;;;;6.32;3.00;;;7.00;81.20;;;;;;5035561;28;20116;-69
2023/02/15 01:00:49;;;;;;;5.72;2.90;;;7.00;81.20;;;;;;5031473;28;20104;-68
2023/02/15 01:03:16;;;;;;;5.97;2.85;;;7.00;81.30;;;;;;5031380;28;20021;-69
2023/02/15 01:05:42;;;;;;;6.63;3.00;;;7.00;81.30;;;;;;5031365;28;20025;-68
2023/02/15 01:08:08;;;;;;;8.98;3.00;;;7.00;81.30;;;;;;5030004;28;20033;-69
2023/02/15 01:10:35;;;;;;;7.68;3.63;;;7.00;81.20;;;;;;5030729;28;20388;-69
2023/02/15 01:13:01;;;;;;;7.05;3.30;;;7.00;81.20;;;;;;5027756;28;20083;-69
2023/02/15 01:15:27;;;;;;;9.43;3.55;;;6.90;81.30;;;;;;5029803;28;20031;-69
2023/02/15 01:17:53;;;;;;;7.95;4.00;;;6.90;81.40;;;;;;5029170;28;20030;-69
2023/02/15 01:20:20;;;;;;;8.45;3.78;;;7.00;81.40;;;;;;5030711;28;20080;-69
2023/02/15 01:22:46;;;;;;;9.02;3.53;;;7.00;81.40;;;;;;5040342;28;20107;-69
2023/02/15 01:25:12;;;;;;;5.75;3.25;;;7.00;81.30;;;;;;5036311;28;20626;-69
2023/02/15 01:27:37;;;;;;;8.38;3.60;;;7.00;81.20;;;;;;5029869;28;20105;-69
2023/02/15 01:30:04;;;;;;;6.35;3.00;;;7.00;81.20;;;;;;5029975;28;20548;-69
2023/02/15 01:32:30;;;;;;;8.05;4.00;;;6.90;81.10;;;;;;5031000;28;20434;-69
2023/02/15 01:34:56;;;;;;;7.10;3.55;;;6.90;81.30;;;;;;5027117;28;20033;-69
2023/02/15 01:37:21;;;;;;;8.10;3.33;;;6.80;81.40;;;;;;5033440;28;20064;-69
2023/02/15 01:39:47;;;;;;;6.50;2.95;;;6.80;81.40;;;;;;5029599;28;20024;-69
2023/02/15 01:42:13;;;;;;;7.88;3.63;;;6.80;81.40;;;;;;5027582;28;20112;-69
2023/02/15 01:44:55;;;;;;;6.85;3.28;;;6.80;81.40;;;;;;5030619;28;20017;-69
2023/02/15 01:47:45;;;;;;;7.97;4.57;;;6.80;82.20;;;;;;5030808;28;20030;-69
2023/02/15 01:50:20;;;;;;;6.07;3.10;;;6.70;81.50;;;;;;5030987;28;20772;-69
2023/02/15 01:53:04;;;;;;;8.95;3.67;;;6.70;81.50;;;;;;5032053;28;20392;-68
2023/02/15 01:55:39;;;;;;;8.23;3.83;;;6.70;81.50;;;;;;5028991;28;20084;-69
2023/02/15 01:58:05;;;;;;;5.38;2.55;;;6.60;81.50;;;;;;5029400;28;20116;-69
2023/02/15 02:00:32;;;;;;;6.03;2.85;;;6.60;81.50;;;;;;5029486;28;20026;-69
2023/02/15 02:02:58;;;;;;;7.55;3.10;;;6.60;81.70;;;;;;5030099;28;20472;-69
2023/02/15 02:05:23;;;;;;;7.38;3.25;;;6.60;81.80;;;;;;5029906;28;20025;-69
2023/02/15 02:07:52;;;;;;;5.95;3.38;;;6.60;81.80;;;;;;5031617;28;20083;-69
2023/02/15 02:10:22;;;;;;;5.97;3.17;;;6.60;81.80;;;;;;5033357;28;20049;-68
2023/02/15 02:12:52;;;;;;;6.00;2.95;;;6.60;81.70;;;;;;5026396;28;20022;-68
2023/02/15 02:15:18;;;;;;;6.40;2.88;;;6.60;81.80;;;;;;5029187;28;20025;-69
2023/02/15 02:17:55;;;;;;;6.43;2.88;;;6.60;81.80;;;;;;5025981;28;20088;-68
2023/02/15 02:20:30;;;;;;;5.90;2.83;;;6.50;81.80;;;;;;5030396;28;20048;-68
2023/02/15 02:23:02;;;;;;;6.75;3.38;;;6.60;81.80;;;;;;5030143;28;20104;-68
2023/02/15 02:25:48;;;;;;;8.83;4.30;;;6.50;81.70;;;;;;5030841;28;20388;-69
2023/02/15 02:28:30;;;;;;;7.55;3.85;;;6.60;81.70;;;;;;5028270;28;20036;-68
2023/02/15 02:31:23;;;;;;;7.07;3.20;;;6.50;81.50;;;;;;5030270;28;20832;-68
2023/02/15 02:34:04;;;;;;;6.70;3.53;;;6.50;81.60;;;;;;5024790;28;20083;-68
2023/02/15 02:37:12;;;;;;;6.88;3.17;;;6.40;81.60;;;;;;5028734;28;20084;-68
2023/02/15 02:40:00;;;;;;;9.10;3.20;;;6.40;81.60;;;;;;5026763;28;20055;-69
2023/02/15 02:42:41;;;;;;;9.27;3.85;;;6.40;81.70;;;;;;5031403;28;20014;-69
2023/02/15 02:45:36;;;;;;;4.78;2.80;;;6.40;81.70;;;;;;5028546;28;20047;-69
2023/02/15 02:48:20;;;;;;;6.07;2.75;;;6.30;81.70;;;;;;5022797;28;20496;-69
2023/02/15 02:50:45;;;;;;;6.75;3.05;;;6.30;81.90;;;;;;5028065;28;20036;-69
2023/02/15 02:53:11;;;;;;;6.28;3.42;;;6.20;81.90;;;;;;5028422;28;20029;-69
2023/02/15 02:55:36;;;;;;;6.65;3.30;;;6.20;81.90;;;;;;5029454;28;20029;-69
2023/02/15 02:58:23;;;;;;;7.35;2.92;;;6.20;82.00;;;;;;5030403;28;20381;-69
2023/02/15 03:00:57;;;;;;;9.32;3.50;;;6.20;82.00;;;;;;5022516;28;20060;-69
2023/02/15 03:03:40;;;;;;;7.82;3.22;;;6.20;81.90;;;;;;5027391;28;20025;-69
2023/02/15 03:06:17;;;;;;;9.70;3.55;;;6.20;82.00;;;;;;5033226;28;20021;-69
2023/02/15 03:08:48;;;;;;;6.55;3.10;;;6.10;81.90;;;;;;5028476;28;20069;-69
2023/02/15 03:11:14;;;;;;;6.38;2.83;;;6.10;82.00;;;;;;5029837;28;20589;-69
2023/02/15 03:13:40;;;;;;;5.47;2.60;;;6.10;82.00;;;;;;5025659;28;20081;-69
2023/02/15 03:16:27;;;;;;;6.53;3.03;;;6.10;82.00;;;;;;5027655;28;20020;-69
2023/02/15 03:19:18;;;;;;;6.75;2.97;;;6.10;82.20;;;;;;5028834;28;20026;-69
2023/02/15 03:22:09;;;;;;;7.47;3.65;;;6.10;82.10;;;;;;5043889;28;20021;-69
2023/02/15 03:24:40;;;;;;;9.70;3.10;;;6.10;82.10;;;;;;5021640;28;20711;-69
2023/02/15 03:27:17;;;;;;;7.53;3.50;;;6.10;81.90;;;;;;5028134;28;20018;-69
2023/02/15 03:29:46;;;;;;;6.85;3.13;;;6.00;81.80;;;;;;5039181;28;20060;-69
2023/02/15 03:32:15;;;;;;;5.35;2.83;;;6.00;81.90;;;;;;5029642;28;20045;-69
2023/02/15 03:34:41;;;;;;;5.65;2.88;;;5.90;81.90;;;;;;5031855;28;20056;-69
2023/02/15 03:37:18;;;;;;;8.98;3.83;;;5.90;82.10;;;;;;5032182;28;20853;-69
2023/02/15 03:39:53;;;;;;;6.32;3.17;;;5.80;82.30;;;;;;5032296;28;20040;-69
2023/02/15 03:42:22;;;;;;;4.47;2.25;;;5.70;82.40;;;;;;5035016;28;20021;-69
2023/02/15 03:44:56;;;;;;;7.38;3.83;;;5.70;82.50;;;;;;5025163;28;20021;-69
2023/02/15 03:47:29;;;;;;;6.72;3.30;;;5.60;82.70;;;;;;5030130;28;20053;-69
2023/02/15 03:53:05;;;;;;;6.72;3.20;;;5.60;82.90;;;;;;5029541;28;20123;-69
2023/02/15 03:55:33;;;;;;;4.93;2.60;;;5.50;82.80;;;;;;5032042;28;20049;-69
2023/02/15 04:03:42;;;;;;;9.35;4.45;;;5.50;83.10;;;;;;5031828;28;20044;-69
2023/02/15 04:06:08;;;;;;;10.25;4.07;;;5.40;83.00;;;;;;5034633;28;20033;-69
2023/02/15 04:11:18;;;;;;;7.28;3.47;;;5.50;83.00;;;;;;5036317;28;20076;-69
2023/02/15 04:13:43;;;;;;;6.55;3.55;;;5.40;83.50;;;;;;5030962;28;20029;-69
2023/02/15 04:16:09;;;;;;;6.72;3.13;;;5.40;83.00;;;;;;5031167;28;20034;-69
2023/02/15 04:26:55;;;;;;;9.75;3.80;;;5.20;83.20;;;;;;5032675;28;20036;-69
2023/02/15 04:29:22;;;;;;;9.18;3.80;;;5.20;83.30;;;;;;5031100;28;20036;-69
2023/02/15 04:31:48;;;;;;;8.02;3.33;;;5.20;83.40;;;;;;5031228;28;20033;-69
2023/02/15 04:34:14;;;;;;;10.45;4.20;;;5.30;83.30;;;;;;5030718;28;20614;-68
2023/02/15 04:36:40;;;;;;;7.72;3.78;;;5.30;83.20;;;;;;5038052;28;20022;-69
2023/02/15 04:39:07;;;;;;;9.02;4.05;;;5.30;83.10;;;;;;5030308;28;20026;-69
2023/02/15 04:41:33;;;;;;;7.65;3.63;;;5.30;83.10;;;;;;5031023;28;20033;-69
2023/02/15 04:44:00;;;;;;;6.93;3.58;;;5.30;83.10;;;;;;5037861;28;20036;-69
2023/02/15 04:46:26;;;;;;;10.55;4.00;;;5.30;83.00;;;;;;5039460;28;20487;-69
2023/02/15 04:48:52;;;;;;;7.63;3.70;;;5.30;83.00;;;;;;5030687;28;20055;-69
2023/02/15 04:51:18;;;;;;;8.30;3.95;;;5.30;83.10;;;;;;5030613;28;20059;-69
2023/02/15 04:53:43;;;;;;;9.20;4.35;;;5.20;83.00;;;;;;5034445;28;20029;-69
2023/02/15 04:56:09;;;;;;;8.10;3.53;;;5.20;83.10;;;;;;5033641;28;20036;-69
2023/02/15 04:58:36;;;;;;;6.88;3.20;;;5.20;83.10;;;;;;5032377;28;20158;-68
2023/02/15 05:01:02;;;;;;;7.85;4.15;;;5.20;83.00;;;;;;5031877;28;20032;-69
2023/02/15 05:03:28;;;;;;;8.85;3.60;;;5.20;82.90;;;;;;5037513;28;20024;-69
2023/02/15 05:05:53;;;;;;;6.35;3.13;;;5.20;82.90;;;;;;5030438;28;20025;-69
2023/02/15 05:08:19;;;;;;;6.22;3.33;;;5.20;82.80;;;;;;5038365;28;20032;-69
2023/02/15 05:10:47;;;;;;;7.55;3.95;;;5.20;82.80;;;;;;5031122;28;20037;-69
2023/02/15 05:13:12;;;;;;;10.00;4.03;;;5.20;82.80;;;;;;5030996;28;20029;-69
2023/02/15 05:15:38;;;;;;;10.63;3.92;;;5.10;82.80;;;;;;5030196;28;20369;-68
2023/02/15 05:18:03;;;;;;;9.15;4.00;;;5.10;82.90;;;;;;5030911;28;20056;-69
2023/02/15 05:20:29;;;;;;;7.68;3.90;;;5.10;83.00;;;;;;5032064;28;20409;-69
2023/02/15 05:22:54;;;;;;;7.75;3.40;;;5.10;83.00;;;;;;5033880;28;20041;-69
2023/02/15 05:28:19;;;;;;;7.10;3.25;;;4.90;83.00;;;;;;5030723;28;20041;-69
2023/02/15 05:30:49;;;;;;;9.18;4.05;;;4.90;83.20;;;;;;5034944;28;20123;-70
2023/02/15 05:33:15;;;;;;;8.30;4.03;;;4.80;83.30;;;;;;5029468;28;20055;-69
2023/02/15 05:35:41;;;;;;;8.50;3.83;;;4.80;83.50;;;;;;5029910;28;20472;-69
2023/02/15 05:38:07;;;;;;;7.35;3.92;;;4.80;83.50;;;;;;5028579;28;20041;-69
2023/02/15 05:40:32;;;;;;;7.45;3.13;;;4.80;83.50;;;;;;5033703;28;20044;-69
2023/02/15 05:42:58;;;;;;;9.82;4.60;;;4.80;83.50;;;;;;5038088;28;20021;-69
2023/02/15 05:45:23;;;;;;;8.85;3.22;;;4.80;83.50;;;;;;5030927;28;20030;-69
2023/02/15 05:47:49;;;;;;;7.20;3.42;;;4.80;83.50;;;;;;5033091;28;20513;-69
2023/02/15 05:50:15;;;;;;;6.93;3.42;;;4.80;83.50;;;;;;5035382;28;20021;-69
2023/02/15 05:52:40;;;;;;;7.43;3.80;;;4.70;83.40;;;;;;5035316;28;20475;-69
2023/02/15 05:55:08;;;;;;;8.05;3.20;;;4.70;83.50;;;;;;5033968;28;20476;-68
2023/02/15 05:57:34;;;;;;;7.97;3.97;;;4.70;83.50;;;;;;5031143;28;20036;-69
2023/02/15 06:00:00;;;;;;;9.43;3.88;;;4.70;83.40;;;;;;5029991;28;20029;-69
2023/02/15 06:02:25;;;;;;;9.00;3.83;;;4.70;83.40;;;;;;5046517;28;20526;-69
2023/02/15 06:04:51;;;;;;;8.70;3.80;;;4.70;83.40;;;;;;5039521;28;20098;-69
2023/02/15 06:07:16;;;;;;;6.72;3.55;;;4.70;83.40;;;;;;5029901;28;20033;-69
2023/02/15 06:09:42;;;;;;;7.78;3.35;;;4.60;83.40;;;;;;5029929;28;20033;-69
2023/02/15 06:12:07;;;;;;;10.30;3.65;;;4.60;83.50;;;;;;5026401;28;20069;-68
2023/02/15 06:14:33;;;;;;;7.80;4.20;;;4.60;83.50;;;;;;5040221;28;20029;-68
2023/02/15 06:16:58;;;;;;;9.45;4.38;;;4.60;83.50;;;;;;5030069;28;20095;-69
2023/02/15 06:19:24;;;;;;;8.95;4.25;;;4.50;83.50;;;;;;5030374;28;20025;-69
2023/02/15 06:21:50;;;;;;;11.02;4.63;;;4.50;84.20;;;;;;5029618;28;20120;-69
2023/02/15 06:24:15;;;;;;;8.38;4.50;;;4.50;83.50;;;;;;5033627;28;20427;-69
2023/02/15 06:26:41;;;;;;;14.07;4.68;;;4.50;83.40;;;;;;5029677;28;20100;-69
2023/02/15 06:29:07;;;;;;;14.13;6.15;;;4.50;83.40;;;;;;5029081;28;20113;-69
2023/02/15 06:31:32;;;;;;;9.98;4.25;;;4.50;83.30;;;;;;5029144;28;20029;-68
2023/02/15 06:34:00;;;;;;;9.38;3.92;;;4.50;83.40;;;;;;5031937;28;20105;-68
2023/02/15 06:36:30;;;;;;;8.05;4.22;;;4.50;83.30;;;;;;5033656;28;20479;-69
2023/02/15 06:38:56;;;;;;;7.45;3.22;;;4.60;83.20;;;;;;5026080;28;20667;-68
2023/02/15 06:41:22;;;;;;;9.57;4.20;;;4.50;83.10;;;;;;5025585;28;20032;-69
2023/02/15 06:43:48;;;;;;;9.00;3.80;;;4.50;83.10;;;;;;5027560;28;20033;-68
2023/02/15 06:46:13;;;;;;;5.35;2.78;;;4.50;83.10;;;;;;5027523;28;20601;-69
2023/02/15 06:48:39;;;;;;;6.70;3.40;;;4.50;83.20;;;;;;5025332;28;20087;-69
2023/02/15 06:51:05;;;;;;;7.15;2.90;;;4.40;83.20;;;;;;5027291;28;20100;-68
2023/02/15 06:53:30;;;;;;;9.82;4.15;;;4.40;83.30;;;;;;5026832;28;20017;-69
2023/02/15 06:56:06;;;;;;;6.15;2.88;;;4.30;83.40;;;;;;5024660;28;20033;-69
2023/02/15 06:58:32;;;;;;;7.40;3.67;;;4.30;83.50;;;;;;5030088;28;20033;-68
2023/02/15 07:00:58;;;;;;;8.95;3.75;;;4.30;83.70;;;;;;5028651;28;20033;-69
2023/02/15 07:03:24;;;;;;;10.10;4.47;;;4.30;83.70;;;;;;5025314;28;20099;-68
2023/02/15 07:05:55;;;;;;;11.93;4.93;;;4.30;83.60;;;;;;5022415;28;20427;-68
2023/02/15 07:08:21;;;;;;;11.35;5.57;;;4.40;83.60;;;;;;5023249;28;20033;-68
2023/02/15 07:10:48;;;;;;;9.07;4.40;;;4.40;83.40;;;;;;5028650;28;20552;-69
2023/02/15 07:13:13;;;;;;;9.07;4.07;;;4.40;83.30;;;;;;5021290;28;20033;-68
2023/02/15 07:15:39;;;;;;;8.70;4.35;;;4.40;83.30;;;;;;5026895;28;20045;-68
2023/02/15 07:18:05;;;;;;;9.25;4.78;;;4.40;83.10;;;;;;4986106;28;1054329;-68
2023/02/15 07:20:30;;;;;;;10.48;4.43;;;4.50;83.20;;;;;;5033816;28;20017;-69
2023/02/15 07:22:56;;;;;;;7.88;4.07;;;4.50;83.00;;;;;;5029307;28;20029;-68
2023/02/15 07:25:21;;;;;;;9.07;4.20;;;4.40;82.90;;;;;;5024519;28;20017;-69
2023/02/15 07:27:47;;;;;;;9.88;4.50;;;4.50;83.10;;;;;;5025377;28;20411;-69
2023/02/15 07:30:15;;;;;;;9.77;5.15;;;4.60;83.80;;;;;;5028369;28;20074;-68
2023/02/15 07:35:25;;;;;;;9.25;4.25;;;4.60;82.90;;;;;;5029808;28;20028;-69
2023/02/15 07:37:52;;;;;;;10.77;4.57;;;4.70;82.90;;;;;;5031874;28;20030;-69
2023/02/15 07:40:18;;;;;;;10.57;4.78;;;4.60;82.80;;;;;;5028660;28;20527;-68
2023/02/15 07:42:44;;;;;;;10.75;5.10;;;4.60;82.90;;;;;;5028630;28;20021;-69
2023/02/15 07:45:10;;;;;;;13.60;5.20;;;4.70;82.90;;;;;;5027776;28;20072;-68
2023/02/15 07:47:35;;;;;;;10.88;5.47;;;4.70;82.80;;;;;;5026633;28;20069;-68
2023/02/15 07:50:01;;;;;;;12.82;5.53;;;4.80;82.90;;;;;;5027946;28;20033;-68
2023/02/15 07:52:27;;;;;;;12.13;5.32;;;4.80;82.80;;;;;;5029311;28;20045;-68
2023/02/15 07:54:52;;;;;;;10.85;4.70;;;4.90;82.70;;;;;;5028697;28;20496;-68
2023/02/15 07:57:18;;;;;;;18.73;7.20;;;4.90;82.60;;;;;;5029228;28;20033;-67
2023/02/15 07:59:43;;;;;;;14.23;5.55;;;4.90;82.50;;;;;;5027211;28;20040;-68
2023/02/15 08:02:12;;;;;;;12.27;4.85;;;5.00;82.50;;;;;;5026704;28;20022;-68
2023/02/15 08:04:39;;;;;;;13.25;5.22;;;5.00;82.40;;;;;;5032031;28;20025;-69
2023/02/15 08:07:04;;;;;;;11.05;5.05;;;5.10;82.40;;;;;;5025396;28;20018;-68
2023/02/15 08:09:30;;;;;;;8.13;4.35;;;5.10;82.40;;;;;;5027692;28;20112;-68
2023/02/15 08:11:55;;;;;;;12.32;5.25;;;5.10;82.60;;;;;;5025735;28;20037;-67
2023/02/15 08:14:22;;;;;;;11.55;4.88;;;5.10;82.60;;;;;;5021189;28;20024;-69
2023/02/15 08:16:47;;;;;;;14.93;5.82;;;5.20;82.60;;;;;;5020794;28;20060;-68
2023/02/15 08:19:23;;;;;;;13.20;5.28;;;5.20;82.50;;;;;;5024950;28;20411;-68
2023/02/15 08:21:58;;;;;;;13.38;5.70;;;5.30;82.50;;;;;;5030146;28;20021;-68
2023/02/15 08:24:26;;;;;;;13.18;5.97;;;5.30;82.30;;;;;;5027125;28;20026;-68
2023/02/15 08:26:52;;;;;;;13.48;5.65;;;5.30;82.30;;;;;;5025196;28;20457;-68
2023/02/15 08:29:22;;;;;;;19.08;8.10;;;5.40;82.30;;;;;;5028773;28;20500;-68
2023/02/15 08:31:48;;;;;;;15.07;5.95;;;5.40;82.30;;;;;;5026202;28;20033;-67
2023/02/15 08:34:16;;;;;;;11.77;5.53;;;5.50;82.40;;;;;;5025364;28;20037;-68
2023/02/15 08:36:47;;;;;;;13.98;5.40;;;5.50;82.30;;;;;;5030057;28;20132;-67
2023/02/15 08:39:14;;;;;;;16.60;7.05;;;5.60;82.30;;;;;;5027456;28;20033;-68
2023/02/15 08:41:43;;;;;;;9.90;5.03;;;5.60;82.10;;;;;;5028467;28;20041;-68
2023/02/15 08:44:10;;;;;;;12.07;5.55;;;5.70;82.10;;;;;;5025656;28;20018;-69
2023/02/15 08:46:38;;;;;;;17.20;6.78;;;5.70;82.00;;;;;;5025947;28;20097;-68
2023/02/15 08:49:04;;;;;;;16.92;5.95;;;5.80;81.90;;;;;;5031557;28;20393;-69
2023/02/15 08:51:33;;;;;;;20.48;8.05;;;5.80;81.90;;;;;;5029089;28;20029;-69
2023/02/15 08:54:01;;;;;;;14.00;6.32;;;5.80;81.80;;;;;;5026553;28;20431;-68
2023/02/15 08:56:29;;;;;;;18.80;7.32;;;5.90;81.80;;;;;;5028380;28;20499;-68
2023/02/15 08:58:55;;;;;;;15.23;6.22;;;6.00;81.70;;;;;;5026880;28;20029;-69
2023/02/15 09:01:24;;;;;;;27.02;10.65;;;6.10;81.50;;;;;;5028525;28;20018;-69
2023/02/15 09:03:54;;;;;;;19.90;8.65;;;6.20;81.30;;;;;;5030908;28;20049;-68
2023/02/15 09:06:21;;;;;;;18.95;9.38;;;6.10;81.20;;;;;;5026659;28;20130;-69
2023/02/15 09:08:48;;;;;;;28.25;11.35;;;6.20;81.20;;;;;;5027246;28;20048;-68
2023/02/15 09:11:17;;;;;;;26.30;10.82;;;6.20;81.10;;;;;;5028987;28;20034;-69
2023/02/15 09:13:44;;;;;;;21.90;8.80;;;6.20;81.00;;;;;;5032580;28;20024;-68
2023/02/15 09:16:10;;;;;;;15.75;6.95;;;6.20;80.90;;;;;;5028184;28;20030;-68
2023/02/15 09:18:39;;;;;;;17.95;7.80;;;6.30;80.80;;;;;;5030975;28;20021;-68
2023/02/15 09:21:10;;;;;;;16.90;6.68;;;6.40;80.60;;;;;;5027650;28;20033;-68
2023/02/15 09:23:36;;;;;;;22.35;9.13;;;6.50;80.50;;;;;;5029356;28;20435;-69
2023/02/15 09:26:03;;;;;;;16.33;7.82;;;6.60;80.40;;;;;;5028422;28;20025;-68
2023/02/15 09:28:29;;;;;;;15.85;7.47;;;6.60;80.20;;;;;;5026771;28;20586;-68
2023/02/15 09:30:55;;;;;;;15.55;6.97;;;6.60;80.20;;;;;;5028774;28;20132;-69
2023/02/15 09:33:21;;;;;;;18.50;8.00;;;6.70;80.30;;;;;;5030676;28;20490;-69
2023/02/15 09:35:47;;;;;;;13.13;5.70;;;6.70;80.20;;;;;;5030142;28;20530;-68
2023/02/15 09:38:14;;;;;;;24.63;8.77;;;6.80;80.20;;;;;;5029429;28;20033;-68
2023/02/15 09:40:49;;;;;;;15.27;6.45;;;6.70;80.10;;;;;;5017276;28;20029;-68
2023/02/15 09:43:38;;;;;;;16.60;7.35;;;6.80;80.20;;;;;;5030290;28;20028;-68
2023/02/15 09:46:19;;;;;;;15.23;5.60;;;6.80;80.10;;;;;;5026052;28;20048;-68
2023/02/15 09:48:53;;;;;;;11.35;5.45;;;6.80;80.10;;;;;;5029938;28;20037;-68
2023/02/15 09:51:33;;;;;;;18.05;6.55;;;6.80;80.20;;;;;;5030180;28;20428;-68
2023/02/15 09:54:11;;;;;;;15.63;6.60;;;6.90;80.20;;;;;;5030636;28;20071;-68
2023/02/15 09:56:49;;;;;;;10.18;4.85;;;7.00;80.20;;;;;;5029843;28;20033;-69
2023/02/15 09:59:30;;;;;;;11.98;5.35;;;7.10;80.10;;;;;;5030054;28;20116;-69
2023/02/15 10:02:37;;;;;;;16.83;7.55;;;7.20;79.80;;;;;;5028569;28;20028;-68
2023/02/15 10:05:27;;;;;;;16.85;8.07;;;7.10;79.80;;;;;;5026880;28;20674;-69
2023/02/15 10:08:37;;;;;;;16.23;7.07;;;7.10;79.90;;;;;;5024069;28;20030;-69
2023/02/15 10:11:39;;;;;;;17.27;7.55;;;7.30;80.00;;;;;;5004398;28;20049;-68
2023/02/15 10:14:27;;;;;;;19.13;7.85;;;7.40;79.70;;;;;;4990848;28;20469;-69
2023/02/15 10:17:02;;;;;;;16.38;7.07;;;7.50;79.40;;;;;;5022363;28;20384;-68
2023/02/15 10:19:36;;;;;;;24.38;10.25;;;7.60;79.30;;;;;;5024370;28;20511;-68
2023/02/15 10:22:13;;;;;;;31.40;11.07;;;7.70;79.00;;;;;;5028339;28;20117;-68
2023/02/15 10:25:01;;;;;;;20.75;9.25;;;7.70;78.60;;;;;;5026646;28;20064;-68
2023/02/15 10:27:31;;;;;;;30.42;10.63;;;7.80;78.60;;;;;;5029733;28;20025;-69
2023/02/15 10:30:12;;;;;;;28.58;11.30;;;7.90;78.50;;;;;;5028252;28;20025;-68
2023/02/15 10:32:58;;;;;;;15.15;6.65;;;8.00;78.20;;;;;;5028887;28;20025;-68
2023/02/15 10:35:30;;;;;;;25.55;12.05;;;8.10;78.00;;;;;;5027299;28;20176;-69
2023/02/15 10:38:14;;;;;;;17.98;8.82;;;8.20;77.90;;;;;;5029241;28;20029;-69
2023/02/15 10:40:59;;;;;;;22.05;8.77;;;8.30;77.80;;;;;;5026423;28;20083;-69
2023/02/15 10:43:55;;;;;;;21.75;8.55;;;8.40;77.70;;;;;;5029215;28;20025;-68
2023/02/15 10:46:33;;;;;;;19.48;7.50;;;8.60;77.50;;;;;;5019413;28;20049;-69
2023/02/15 10:49:20;;;;;;;23.55;10.15;;;8.70;77.30;;;;;;5026118;28;20155;-68
2023/02/15 10:52:12;;;;;;;28.40;9.23;;;8.70;77.00;;;;;;5028495;28;20147;-69
2023/02/15 10:54:53;;;;;;;21.17;8.75;;;8.80;76.50;;;;;;5027410;28;20030;-69
2023/02/15 10:57:32;;;;;;;27.55;9.18;;;8.90;76.50;;;;;;5026954;28;20021;-68
2023/02/15 11:00:11;;;;;;;22.83;9.63;;;9.00;76.40;;;;;;5029539;28;20057;-68
2023/02/15 11:02:45;;;;;;;20.35;8.23;;;9.10;76.00;;;;;;5027769;28;20028;-68
2023/02/15 11:05:21;;;;;;;23.80;10.32;;;9.10;75.80;;;;;;5025596;28;20048;-68
2023/02/15 11:07:48;;;;;;;13.45;6.63;;;9.20;75.70;;;;;;5027674;28;20040;-68
2023/02/15 11:10:51;;;;;;;19.45;7.40;;;9.30;75.50;;;;;;5023951;28;20037;-69
2023/02/15 11:13:19;;;;;;;13.07;5.85;;;9.40;75.50;;;;;;5012891;28;20041;-68
2023/02/15 11:15:53;;;;;;;16.58;7.13;;;9.50;75.30;;;;;;5027444;28;20025;-68
2023/02/15 11:18:27;;;;;;;17.08;7.45;;;9.50;75.30;;;;;;5042695;28;20136;-68
2023/02/15 11:20:59;;;;;;;15.80;7.30;;;9.70;75.40;;;;;;5025735;28;20114;-69
2023/02/15 11:23:27;;;;;;;28.98;12.23;;;9.90;75.40;;;;;;5022574;28;20097;-68
2023/02/15 11:25:57;;;;;;;20.48;9.60;;;9.90;74.60;;;;;;5026752;28;20029;-69
2023/02/15 11:28:36;;;;;;;17.65;7.18;;;10.00;73.90;;;;;;5027512;28;20022;-69
2023/02/15 11:31:21;;;;;;;15.75;6.88;;;10.20;74.00;;;;;;5024606;28;20037;-68
2023/02/15 11:34:02;;;;;;;19.92;8.25;;;10.20;73.80;;;;;;5024518;28;20090;-68
2023/02/15 11:36:33;;;;;;;16.30;7.50;;;10.30;73.40;;;;;;5027707;28;20108;-68
2023/02/15 11:39:08;;;;;;;18.67;7.75;;;10.30;73.40;;;;;;5025480;28;20037;-68
2023/02/15 11:41:38;;;;;;;13.40;6.20;;;10.40;73.20;;;;;;5022129;28;20026;-69
2023/02/15 11:44:15;;;;;;;16.90;7.15;;;10.60;73.20;;;;;;5026116;28;20021;-68
2023/02/15 11:46:41;;;;;;;21.05;8.38;;;10.70;72.60;;;;;;5026649;28;20017;-68
2023/02/15 11:49:29;;;;;;;15.25;5.82;;;10.80;72.60;;;;;;5027710;28;20521;-68
2023/02/15 11:51:56;;;;;;;17.15;8.00;;;11.00;72.40;;;;;;5020498;28;20037;-69
2023/02/15 11:54:28;;;;;;;19.45;8.70;;;11.00;72.00;;;;;;5029509;28;20025;-69
2023/02/15 11:56:57;;;;;;;21.48;9.82;;;11.20;72.00;;;;;;5031064;28;20167;-69
2023/02/15 11:59:34;;;;;;;15.55;6.40;;;11.30;71.50;;;;;;5030877;28;20032;-68
2023/02/15 12:02:00;;;;;;;16.35;7.47;;;11.40;70.90;;;;;;5026900;28;20626;-68
2023/02/15 12:04:29;;;;;;;14.10;6.55;;;11.40;71.10;;;;;;5032177;28;20033;-69
2023/02/15 12:06:59;;;;;;;14.70;7.38;;;11.60;71.30;;;;;;5030116;28;20038;-68
2023/02/15 12:09:48;;;;;;;15.02;6.70;;;11.80;71.20;;;;;;5031735;28;20034;-68
2023/02/15 12:12:23;;;;;;;18.42;7.93;;;12.30;70.60;;;;;;5027730;28;20038;-69
2023/02/15 12:14:52;;;;;;;14.57;5.72;;;13.00;69.00;;;;;;5027232;28;20036;-71
2023/02/15 12:17:20;;;;;;;18.45;8.55;;;13.60;67.40;;;;;;5030685;28;20492;-70
2023/02/15 12:19:50;;;;;;;16.02;7.32;;;14.10;65.90;;;;;;5031769;28;20114;-70
2023/02/15 12:22:31;;;;;;;22.27;9.02;;;14.40;65.00;;;;;;5030201;28;20018;-71
2023/02/15 12:25:01;;;;;;;29.35;12.32;;;14.50;64.40;;;;;;5031153;28;20044;-68
2023/02/15 12:27:36;;;;;;;20.98;8.95;;;14.20;63.80;;;;;;5028412;28;20022;-68
2023/02/15 12:30:16;;;;;;;23.65;9.23;;;13.50;64.90;;;;;;5031713;28;20574;-68
2023/02/15 12:32:59;;;;;;;22.52;9.45;;;13.20;66.00;;;;;;5031870;28;20125;-68
2023/02/15 12:35:29;;;;;;;14.98;5.97;;;13.00;66.20;;;;;;5031717;28;20091;-69
2023/02/15 12:38:05;;;;;;;19.23;8.82;;;13.00;67.20;;;;;;5031874;28;20520;-69
2023/02/15 12:40:33;;;;;;;17.33;6.90;;;13.10;67.50;;;;;;5028203;28;20578;-68
2023/02/15 12:42:59;;;;;;;12.18;5.57;;;13.10;67.80;;;;;;5031892;28;20396;-69
2023/02/15 12:45:31;;;;;;;13.52;6.25;;;13.20;68.10;;;;;;5031644;28;20017;-68
2023/02/15 12:48:12;;;;;;;14.07;5.05;;;13.30;68.30;;;;;;5029486;28;20025;-68
2023/02/15 12:50:39;;;;;;;13.43;5.20;;;13.40;68.30;;;;;;5027434;28;20025;-68
2023/02/15 12:53:08;;;;;;;16.00;7.80;;;13.50;68.20;;;;;;5028546;28;20049;-68
2023/02/15 12:55:34;;;;;;;13.70;6.47;;;13.50;67.90;;;;;;5030826;28;20025;-68
2023/02/15 12:58:19;;;;;;;15.25;5.50;;;13.70;68.00;;;;;;5030185;28;20386;-69
2023/02/15 13:00:46;;;;;;;19.75;8.52;;;13.70;68.10;;;;;;5027461;28;20021;-68
2023/02/15 13:03:23;;;;;;;16.08;7.00;;;13.80;67.80;;;;;;5024263;28;20025;-69
2023/02/15 13:05:54;;;;;;;16.23;7.15;;;13.80;67.30;;;;;;5031172;28;20055;-69
2023/02/15 13:08:26;;;;;;;20.05;9.65;;;13.70;67.50;;;;;;5031408;28;20025;-69
2023/02/15 13:11:10;;;;;;;31.98;13.00;;;13.70;66.20;;;;;;5028048;28;20512;-68
2023/02/15 13:13:50;;;;;;;20.40;8.27;;;13.80;65.60;;;;;;5029846;28;20017;-69
2023/02/15 13:16:19;;;;;;;12.98;6.07;;;14.00;66.00;;;;;;5031064;28;20156;-68
2023/02/15 13:18:50;;;;;;;25.75;11.60;;;14.10;65.80;;;;;;5030055;28;20033;-68
2023/02/15 13:21:33;;;;;;;21.50;9.02;;;14.00;64.60;;;;;;5029816;28;20439;-68
2023/02/15 13:24:07;;;;;;;27.75;12.32;;;14.00;65.10;;;;;;5030358;28;20026;-68
2023/02/15 13:26:34;;;;;;;22.48;10.07;;;13.90;63.80;;;;;;5031083;28;20033;-68
2023/02/15 13:29:08;;;;;;;17.17;7.57;;;13.90;64.60;;;;;;5030159;28;20018;-68
2023/02/15 13:31:34;;;;;;;22.13;9.40;;;13.80;65.10;;;;;;5034050;28;20038;-69
2023/02/15 13:34:09;;;;;;;18.52;7.15;;;13.90;65.40;;;;;;5030075;28;20040;-69
2023/02/15 13:37:01;;;;;;;18.58;8.63;;;13.80;65.10;;;;;;5024101;28;20029;-69